North Cambridge, Massachusetts
Current Conditions -  °F | °C
As of 9:54 PM on Sunday 23 Nov 2014 (Local Time) from KBOS Reporting Station
Scattered Clouds Scattered Clouds  
Wind Chill: 38°   Ceiling: Unl
Heat Index: 43°   Visibility: 10mi
Dew Point: 36°   Wind: 8mph
Humidity: 76%   Direction: 190°S
Pressure: 30.13"   Gusts: NA
Location:  42.3933°N, 71.1333°W
Report Text: KBOS 240254Z 19007KT 10SM FEW110 SCT250 06/02 A3013 RMK AO2 SLP202 T00610022 57005
Loading
Personal Weather Stations






























Interactive Weather Map New forecast layout! Learn more

10-Day Weather Forecast

Advertisements
Track Severe Weather on mobile